Time;durP1;ratioP1;P1;durP2;ratioP2;P2;SDS_P1;SDS_P2;PMS_P1;PMS_P2;Temp;Humidity;BMP_temperature;BMP_pressure;BME280_temperature;BME280_humidity;BME280_pressure;Samples;Min_cycle;Max_cycle;Signal;HPM_P1;HPM_P2
2021/09/10 00:00:51;;;;;;;22.10;15.73;;;22.10;88.40;;;;;;4997200;28;20065;-78
2021/09/10 00:03:17;;;;;;;20.33;15.38;;;22.10;88.70;;;;;;4996790;28;20372;-78
2021/09/10 00:05:43;;;;;;;19.67;15.70;;;22.00;88.90;;;;;;4995663;28;20391;-78
2021/09/10 00:08:08;;;;;;;18.23;14.93;;;22.00;89.00;;;;;;5011922;28;20038;-78
2021/09/10 00:10:34;;;;;;;16.90;14.27;;;21.90;89.10;;;;;;4995531;28;20038;-78
2021/09/10 00:13:00;;;;;;;18.02;15.52;;;21.90;89.40;;;;;;4995548;28;20383;-78
2021/09/10 00:15:26;;;;;;;17.48;14.90;;;21.90;89.60;;;;;;4996921;28;20034;-79
2021/09/10 00:17:52;;;;;;;19.30;16.55;;;21.90;89.70;;;;;;4995856;28;20081;-78
2021/09/10 00:20:18;;;;;;;21.17;15.77;;;21.80;89.90;;;;;;4995414;28;20446;-78
2021/09/10 00:22:44;;;;;;;18.13;16.13;;;21.80;90.00;;;;;;5011531;28;20066;-79
2021/09/10 00:25:10;;;;;;;18.48;15.80;;;21.70;90.10;;;;;;5011778;28;20093;-79
2021/09/10 00:27:35;;;;;;;18.92;15.07;;;21.70;90.20;;;;;;4996763;28;20370;-78
2021/09/10 00:30:02;;;;;;;21.25;16.67;;;21.60;90.20;;;;;;4996339;28;20118;-79
2021/09/10 00:32:27;;;;;;;18.30;15.63;;;21.60;90.40;;;;;;5011418;28;20034;-78
2021/09/10 00:34:53;;;;;;;20.48;15.95;;;21.60;90.40;;;;;;4996556;28;20541;-78
2021/09/10 00:37:19;;;;;;;20.17;16.75;;;21.60;90.50;;;;;;4995286;28;20034;-79
2021/09/10 00:39:44;;;;;;;18.80;16.05;;;21.50;90.60;;;;;;4996605;28;20030;-79
2021/09/10 00:42:10;;;;;;;24.67;17.08;;;21.50;90.60;;;;;;5011161;28;20382;-78
2021/09/10 00:44:36;;;;;;;18.98;16.02;;;21.50;90.70;;;;;;5011468;28;20397;-78
2021/09/10 00:47:01;;;;;;;20.15;16.10;;;21.40;90.80;;;;;;5011148;28;20062;-78
2021/09/10 00:49:27;;;;;;;19.35;16.30;;;21.40;90.80;;;;;;5011060;28;20038;-79
2021/09/10 00:51:53;;;;;;;20.48;17.00;;;21.30;90.90;;;;;;4995966;28;20030;-79
2021/09/10 00:54:19;;;;;;;23.02;16.80;;;21.40;91.00;;;;;;4996105;28;20025;-78
2021/09/10 00:56:44;;;;;;;21.50;17.52;;;21.30;91.40;;;;;;4995868;28;20018;-78
2021/09/10 00:59:10;;;;;;;20.48;18.00;;;21.30;91.20;;;;;;4994856;28;20026;-78
2021/09/10 01:01:36;;;;;;;23.30;17.60;;;21.30;91.20;;;;;;4994392;28;20114;-78
2021/09/10 01:04:02;;;;;;;23.30;17.35;;;21.30;91.20;;;;;;4994331;28;20436;-79
2021/09/10 01:06:29;;;;;;;21.67;17.73;;;21.20;91.30;;;;;;4995846;28;20364;-78
2021/09/10 01:08:57;;;;;;;20.20;16.58;;;21.20;91.40;;;;;;5010870;28;20030;-79
2021/09/10 01:11:24;;;;;;;23.90;18.17;;;21.20;91.40;;;;;;4994358;28;20034;-78
2021/09/10 01:13:50;;;;;;;20.40;17.48;;;21.10;91.50;;;;;;4994493;28;20061;-78
2021/09/10 01:16:17;;;;;;;20.05;16.58;;;21.10;91.60;;;;;;4996061;28;20026;-77
2021/09/10 01:18:43;;;;;;;19.20;17.05;;;21.10;91.60;;;;;;4995791;28;20475;-77
2021/09/10 01:21:08;;;;;;;22.25;17.63;;;21.10;91.90;;;;;;4995870;28;20037;-77
2021/09/10 01:23:34;;;;;;;21.02;18.25;;;21.10;91.70;;;;;;4994435;28;20474;-77
2021/09/10 01:26:00;;;;;;;22.88;17.48;;;21.10;91.80;;;;;;4994102;28;20106;-78
2021/09/10 01:28:26;;;;;;;21.25;17.05;;;21.10;91.80;;;;;;4994944;28;20414;-78
2021/09/10 01:30:52;;;;;;;21.25;17.55;;;21.10;91.90;;;;;;4993997;28;20030;-77
2021/09/10 01:33:18;;;;;;;22.80;17.58;;;21.10;91.90;;;;;;4994095;28;20065;-78
2021/09/10 01:35:44;;;;;;;20.33;17.35;;;21.10;91.90;;;;;;4994085;28;20030;-78
2021/09/10 01:38:09;;;;;;;24.83;18.23;;;21.10;92.00;;;;;;4995410;28;20026;-77
2021/09/10 01:40:37;;;;;;;21.08;17.60;;;21.10;92.00;;;;;;4993913;28;20031;-78
2021/09/10 01:43:04;;;;;;;23.83;18.42;;;21.00;92.00;;;;;;4993926;28;20385;-78
2021/09/10 01:45:30;;;;;;;23.33;18.40;;;21.00;92.00;;;;;;4994093;28;20425;-78
2021/09/10 01:47:55;;;;;;;22.52;17.50;;;21.00;92.10;;;;;;4995599;28;20022;-78
2021/09/10 01:50:21;;;;;;;21.73;17.85;;;21.00;92.10;;;;;;5009874;28;20045;-78
2021/09/10 01:52:47;;;;;;;24.52;18.70;;;21.00;92.20;;;;;;4995094;28;20491;-78
2021/09/10 01:55:13;;;;;;;22.45;16.52;;;20.90;92.20;;;;;;5009842;28;20076;-78
2021/09/10 01:57:44;;;;;;;20.90;17.45;;;20.90;92.20;;;;;;4994728;28;20105;-77
2021/09/10 02:00:10;;;;;;;21.92;18.70;;;20.90;92.30;;;;;;5004560;28;20344;-78
2021/09/10 02:02:35;;;;;;;25.10;18.08;;;20.90;92.30;;;;;;5029667;28;20096;-78
2021/09/10 02:05:01;;;;;;;24.17;17.92;;;20.80;92.30;;;;;;5029480;28;20026;-78
2021/09/10 02:07:27;;;;;;;22.08;17.70;;;20.80;92.40;;;;;;5029587;28;20062;-78
2021/09/10 02:09:53;;;;;;;23.90;18.45;;;20.80;92.40;;;;;;5012817;28;20584;-78
2021/09/10 02:12:18;;;;;;;22.83;18.33;;;20.80;92.50;;;;;;5014386;28;20049;-78
2021/09/10 02:14:44;;;;;;;22.70;18.55;;;20.70;92.50;;;;;;5012330;28;20065;-78
2021/09/10 02:17:09;;;;;;;22.02;16.50;;;20.70;92.50;;;;;;5012889;28;20471;-78
2021/09/10 02:19:35;;;;;;;21.65;17.88;;;20.70;92.60;;;;;;5014065;28;20084;-76
2021/09/10 02:22:01;;;;;;;21.63;17.55;;;20.70;92.70;;;;;;5004219;28;20478;-77
2021/09/10 02:24:27;;;;;;;20.65;17.05;;;20.70;92.70;;;;;;5008950;28;20415;-76
2021/09/10 02:26:53;;;;;;;22.40;17.60;;;20.60;92.70;;;;;;5009291;28;20028;-77
2021/09/10 02:29:18;;;;;;;20.52;16.70;;;20.60;92.70;;;;;;4993233;28;20026;-77
2021/09/10 02:31:44;;;;;;;21.40;17.00;;;20.60;92.70;;;;;;4994185;28;20034;-77
2021/09/10 02:34:10;;;;;;;22.83;17.13;;;20.60;92.80;;;;;;5009159;28;20383;-77
2021/09/10 02:36:36;;;;;;;20.17;15.88;;;20.50;92.80;;;;;;5009327;28;20471;-77
2021/09/10 02:39:05;;;;;;;23.00;17.38;;;20.50;92.80;;;;;;5009357;28;20172;-77
2021/09/10 02:41:31;;;;;;;20.77;15.93;;;20.50;92.90;;;;;;4994188;28;20022;-77
2021/09/10 02:43:57;;;;;;;22.30;16.45;;;20.50;92.90;;;;;;5009291;28;20038;-77
2021/09/10 02:46:23;;;;;;;19.33;15.10;;;20.50;92.90;;;;;;5008835;28;20503;-77
2021/09/10 02:48:48;;;;;;;19.88;15.65;;;20.50;92.90;;;;;;5009013;28;20128;-77
2021/09/10 02:51:14;;;;;;;22.98;16.52;;;20.50;93.00;;;;;;5009179;28;20158;-78
2021/09/10 02:53:40;;;;;;;21.05;15.73;;;20.40;93.00;;;;;;5008924;28;20038;-78
2021/09/10 02:56:05;;;;;;;19.27;16.27;;;20.50;93.10;;;;;;5008782;28;20164;-78
2021/09/10 02:58:31;;;;;;;21.42;15.52;;;20.40;93.10;;;;;;5009021;28;20430;-77
2021/09/10 03:00:59;;;;;;;19.92;15.43;;;20.40;93.20;;;;;;4993849;28;20038;-76
2021/09/10 03:03:26;;;;;;;18.48;14.85;;;20.40;93.20;;;;;;4994642;28;20042;-77
2021/09/10 03:05:52;;;;;;;22.42;16.92;;;20.30;93.50;;;;;;4994420;28;20030;-76
2021/09/10 03:08:17;;;;;;;21.65;15.70;;;20.30;93.30;;;;;;5009482;28;20037;-77
2021/09/10 03:10:43;;;;;;;16.92;13.20;;;20.30;93.30;;;;;;4994044;28;20471;-77
2021/09/10 03:13:09;;;;;;;18.75;15.00;;;20.30;93.30;;;;;;4994097;28;20375;-78
2021/09/10 03:15:34;;;;;;;21.02;16.20;;;20.20;93.30;;;;;;4993805;28;20049;-78
2021/09/10 03:18:00;;;;;;;23.75;15.85;;;20.20;93.40;;;;;;4994024;28;20471;-78
2021/09/10 03:20:27;;;;;;;18.95;15.35;;;20.20;93.40;;;;;;5008721;28;20035;-79
2021/09/10 03:22:52;;;;;;;18.50;14.25;;;20.20;93.50;;;;;;5008776;28;20387;-78
2021/09/10 03:25:18;;;;;;;18.75;14.85;;;20.10;93.50;;;;;;4992355;28;20050;-77
2021/09/10 03:27:44;;;;;;;18.17;14.30;;;20.10;93.50;;;;;;4997363;28;20034;-77
2021/09/10 03:30:13;;;;;;;17.20;13.88;;;20.10;93.50;;;;;;5012485;28;20041;-77
2021/09/10 03:32:39;;;;;;;19.52;15.23;;;20.10;93.60;;;;;;5012528;28;20497;-79
2021/09/10 03:35:06;;;;;;;19.33;14.90;;;20.00;93.60;;;;;;5012481;28;20386;-79
2021/09/10 03:37:32;;;;;;;17.85;14.75;;;20.10;93.60;;;;;;4997394;28;20026;-78
2021/09/10 03:39:58;;;;;;;18.75;14.93;;;20.00;93.60;;;;;;5012313;28;20026;-77
2021/09/10 03:42:23;;;;;;;20.00;15.43;;;20.10;93.70;;;;;;4997468;28;20538;-78
2021/09/10 03:44:49;;;;;;;21.83;14.65;;;20.00;93.70;;;;;;4997284;28;20034;-77
2021/09/10 03:47:15;;;;;;;20.80;14.57;;;20.00;93.70;;;;;;5013060;28;20214;-77
2021/09/10 03:49:40;;;;;;;18.80;14.38;;;20.00;93.70;;;;;;5012084;28;20462;-77
2021/09/10 03:52:06;;;;;;;17.77;13.95;;;20.00;93.70;;;;;;5012153;28;20377;-78
2021/09/10 03:54:32;;;;;;;18.85;15.38;;;20.00;93.80;;;;;;4997036;28;20026;-76
2021/09/10 03:56:58;;;;;;;17.30;12.95;;;19.90;93.80;;;;;;5012087;28;20034;-77
2021/09/10 03:59:23;;;;;;;16.15;13.02;;;19.90;93.70;;;;;;5011986;28;20030;-77
2021/09/10 04:01:50;;;;;;;17.35;13.13;;;19.90;93.80;;;;;;4996822;28;20501;-78
2021/09/10 04:04:16;;;;;;;18.85;13.85;;;19.90;93.80;;;;;;5011714;28;20062;-78
2021/09/10 04:06:42;;;;;;;15.68;13.02;;;19.90;94.00;;;;;;4997112;28;20066;-78
2021/09/10 04:09:08;;;;;;;18.13;13.18;;;19.90;93.80;;;;;;4996786;28;20479;-77
2021/09/10 04:11:35;;;;;;;18.30;13.43;;;19.90;93.80;;;;;;4996727;28;20034;-79
2021/09/10 04:14:01;;;;;;;17.33;12.82;;;19.90;93.80;;;;;;4996683;28;20026;-80
2021/09/10 04:16:27;;;;;;;17.63;14.55;;;19.80;94.10;;;;;;5006465;28;20521;-78
2021/09/10 04:18:53;;;;;;;17.38;12.70;;;19.80;93.90;;;;;;5015079;28;20026;-78
2021/09/10 04:21:18;;;;;;;15.23;13.18;;;19.80;93.90;;;;;;5014666;28;20160;-77
2021/09/10 04:23:44;;;;;;;18.20;14.32;;;19.80;94.20;;;;;;5014661;28;20081;-78
2021/09/10 04:26:10;;;;;;;19.15;13.80;;;19.80;93.90;;;;;;5014860;28;20026;-78
2021/09/10 04:28:35;;;;;;;17.00;13.95;;;19.70;94.00;;;;;;4998149;28;20073;-77
2021/09/10 04:31:01;;;;;;;17.65;13.35;;;19.80;94.00;;;;;;5014624;28;20033;-77
2021/09/10 04:33:27;;;;;;;17.88;13.00;;;19.80;94.00;;;;;;5014689;28;20379;-78
2021/09/10 04:35:52;;;;;;;18.77;14.07;;;19.70;94.00;;;;;;4998157;28;20037;-80
2021/09/10 04:38:18;;;;;;;17.75;13.35;;;19.70;94.10;;;;;;4981228;28;20493;-77
2021/09/10 04:40:44;;;;;;;22.13;13.43;;;19.70;94.10;;;;;;5014771;28;20057;-77
2021/09/10 04:43:10;;;;;;;20.10;14.40;;;19.70;94.10;;;;;;5015810;28;20033;-77
2021/09/10 04:45:36;;;;;;;17.02;14.07;;;19.70;94.10;;;;;;5014521;28;20026;-79
2021/09/10 04:48:01;;;;;;;18.42;13.93;;;19.70;94.20;;;;;;5015508;28;20117;-77
2021/09/10 04:50:27;;;;;;;16.17;11.75;;;19.60;94.10;;;;;;5015504;28;20069;-78
2021/09/10 04:52:53;;;;;;;17.02;13.38;;;19.60;94.20;;;;;;4983560;28;20401;-78
2021/09/10 04:55:18;;;;;;;17.17;13.10;;;19.70;94.20;;;;;;5014709;28;20109;-77
2021/09/10 04:57:45;;;;;;;19.75;13.00;;;19.60;94.20;;;;;;4997850;28;20120;-77
2021/09/10 05:00:12;;;;;;;17.85;12.50;;;19.60;94.20;;;;;;4998260;28;20031;-77
2021/09/10 05:02:38;;;;;;;17.95;13.27;;;19.60;94.20;;;;;;5014248;28;20030;-78
2021/09/10 05:05:05;;;;;;;15.43;13.10;;;19.60;94.20;;;;;;5014605;28;20048;-77
2021/09/10 05:07:31;;;;;;;16.35;12.52;;;19.60;94.20;;;;;;5014107;28;20033;-78
2021/09/10 05:09:56;;;;;;;16.80;12.63;;;19.60;94.20;;;;;;4997582;28;20034;-78
2021/09/10 05:12:22;;;;;;;16.40;12.43;;;19.60;94.20;;;;;;5013894;28;20386;-79
2021/09/10 05:14:51;;;;;;;17.77;13.02;;;19.60;94.30;;;;;;5014235;28;20079;-78
2021/09/10 05:17:18;;;;;;;16.42;12.75;;;19.50;94.20;;;;;;4998017;28;20081;-79
2021/09/10 05:19:44;;;;;;;15.52;11.77;;;19.60;94.30;;;;;;5013559;28;20034;-77
2021/09/10 05:22:10;;;;;;;17.52;13.30;;;19.50;94.30;;;;;;5014080;28;20038;-79
2021/09/10 05:41:59;;;;;;;13.98;9.57;;;19.70;94.40;;;;;;4842256;29;20046;-79
2021/09/10 05:44:25;;;;;;;13.18;10.50;;;19.70;94.40;;;;;;4859422;29;20486;-80
2021/09/10 05:46:50;;;;;;;16.30;11.75;;;19.70;94.40;;;;;;4939419;28;20137;-79
2021/09/10 05:49:16;;;;;;;17.63;11.88;;;19.80;94.40;;;;;;5007857;28;20041;-80
2021/09/10 05:51:42;;;;;;;14.48;11.50;;;19.80;94.40;;;;;;5013118;28;20468;-81
2021/09/10 05:54:08;;;;;;;13.35;10.95;;;19.80;94.40;;;;;;4996924;28;20018;-78
2021/09/10 05:56:34;;;;;;;14.05;10.70;;;19.90;94.40;;;;;;5013307;28;20038;-79
2021/09/10 05:59:36;;;;;;;12.70;10.40;;;19.90;94.40;;;;;;4994919;28;20022;-76
2021/09/10 06:08:47;;;;;;;16.02;9.93;;;20.00;94.20;;;;;;5013031;28;20026;-78
2021/09/10 06:12:05;;;;;;;14.02;10.20;;;20.10;94.20;;;;;;5014791;28;20039;-78
2021/09/10 06:15:14;;;;;;;13.48;10.27;;;20.10;94.20;;;;;;4967257;28;20452;-78
2021/09/10 06:25:18;;;;;;;14.55;10.60;;;20.20;94.00;;;;;;4938036;29;20066;-80
2021/09/10 06:36:06;;;;;;;14.95;10.02;;;20.20;94.00;;;;;;4822164;29;20157;-78
2021/09/10 06:42:14;;;;;;;14.13;10.38;;;20.20;93.90;;;;;;4840054;29;20038;-78
2021/09/10 06:44:39;;;;;;;16.08;10.75;;;20.20;93.90;;;;;;4882560;29;20044;-78
2021/09/10 06:47:05;;;;;;;16.35;12.07;;;20.30;93.90;;;;;;4988740;28;20049;-76
2021/09/10 06:49:31;;;;;;;12.80;10.27;;;20.30;93.90;;;;;;5012250;28;20494;-79
2021/09/10 06:51:57;;;;;;;13.50;10.38;;;20.40;93.80;;;;;;5029025;28;20046;-79
2021/09/10 06:54:23;;;;;;;13.05;10.00;;;20.40;93.80;;;;;;5012489;28;20486;-78
2021/09/10 06:56:49;;;;;;;12.95;10.48;;;20.40;93.80;;;;;;5013793;28;20034;-79
2021/09/10 06:59:18;;;;;;;16.80;11.50;;;20.40;93.80;;;;;;5012316;28;20038;-79
2021/09/10 07:01:44;;;;;;;13.90;10.38;;;20.40;93.70;;;;;;5014956;28;20041;-79
2021/09/10 07:04:10;;;;;;;13.27;10.73;;;20.50;93.70;;;;;;5016355;28;20034;-80
2021/09/10 07:06:36;;;;;;;16.42;12.02;;;20.50;93.60;;;;;;5000032;28;20038;-78
2021/09/10 07:09:02;;;;;;;14.23;11.15;;;20.50;93.60;;;;;;5016522;28;20033;-76
2021/09/10 07:11:28;;;;;;;15.82;11.65;;;20.50;93.50;;;;;;5000230;28;20413;-78
2021/09/10 07:13:54;;;;;;;14.32;10.82;;;20.50;93.50;;;;;;5032700;28;20022;-78
2021/09/10 07:16:20;;;;;;;13.93;11.07;;;20.50;93.50;;;;;;5032307;28;20100;-78
2021/09/10 07:18:46;;;;;;;12.73;10.20;;;20.50;93.50;;;;;;5016916;28;20026;-79
2021/09/10 07:21:11;;;;;;;15.93;11.77;;;20.50;93.50;;;;;;5015885;28;20037;-78
2021/09/10 07:23:37;;;;;;;12.68;10.32;;;20.50;93.50;;;;;;5016544;28;20443;-81
2021/09/10 07:26:03;;;;;;;14.65;11.38;;;20.50;93.50;;;;;;5031691;28;20415;-79
2021/09/10 07:28:31;;;;;;;13.98;9.73;;;20.50;93.40;;;;;;5016272;28;20026;-79
2021/09/10 07:30:57;;;;;;;14.40;10.50;;;20.50;93.40;;;;;;5015526;28;20540;-78
2021/09/10 07:33:23;;;;;;;13.18;10.57;;;20.60;93.40;;;;;;4996919;28;20042;-79
2021/09/10 07:35:49;;;;;;;13.48;10.38;;;20.60;93.40;;;;;;4997599;28;20026;-80
2021/09/10 07:38:15;;;;;;;18.63;10.63;;;20.60;93.40;;;;;;4996239;28;20036;-78
2021/09/10 07:40:41;;;;;;;12.95;10.15;;;20.70;93.40;;;;;;4996061;28;20521;-78
2021/09/10 07:43:07;;;;;;;16.40;11.25;;;20.70;93.40;;;;;;5004118;28;20116;-77
2021/09/10 07:45:32;;;;;;;14.60;9.88;;;20.70;93.30;;;;;;5017427;28;20369;-79
2021/09/10 07:47:58;;;;;;;14.00;10.73;;;20.80;93.40;;;;;;4999384;28;20032;-77
2021/09/10 07:50:24;;;;;;;15.15;11.15;;;20.80;93.30;;;;;;5016637;28;20117;-77
2021/09/10 07:52:50;;;;;;;15.65;10.98;;;20.80;93.20;;;;;;5015494;28;20045;-77
2021/09/10 07:55:15;;;;;;;14.18;10.45;;;20.90;93.20;;;;;;5015791;28;20029;-81
2021/09/10 07:57:41;;;;;;;15.07;11.63;;;21.00;93.10;;;;;;4998934;28;20022;-77
2021/09/10 08:00:08;;;;;;;13.48;9.55;;;21.00;93.10;;;;;;5016854;28;20046;-79
2021/09/10 08:02:35;;;;;;;13.95;9.18;;;21.10;93.10;;;;;;4998355;28;20022;-79
2021/09/10 08:05:02;;;;;;;14.70;9.63;;;21.10;92.90;;;;;;5014714;28;20164;-79
2021/09/10 08:07:28;;;;;;;13.02;9.20;;;21.20;92.90;;;;;;5015665;28;20385;-79
2021/09/10 08:09:53;;;;;;;12.63;8.90;;;21.30;92.80;;;;;;5016241;28;20029;-80
2021/09/10 08:12:19;;;;;;;12.65;9.32;;;21.30;92.70;;;;;;5015174;28;20030;-79
2021/09/10 08:18:43;;;;;;;15.73;10.00;;;21.40;92.30;;;;;;4994305;28;20038;-78
2021/09/10 08:21:09;;;;;;;14.82;11.05;;;21.40;92.20;;;;;;4978096;28;20056;-78
2021/09/10 08:23:34;;;;;;;12.63;9.15;;;21.40;92.10;;;;;;5010098;28;20116;-77
2021/09/10 08:26:00;;;;;;;13.90;9.57;;;21.50;92.10;;;;;;4986776;28;20145;-81
2021/09/10 08:28:27;;;;;;;15.90;10.63;;;21.50;92.00;;;;;;5013842;28;20463;-79
2021/09/10 08:30:53;;;;;;;12.63;8.45;;;21.50;91.90;;;;;;5015850;28;20092;-78
2021/09/10 08:33:19;;;;;;;13.82;9.70;;;21.50;91.80;;;;;;5021550;28;20037;-81
2021/09/10 08:35:46;;;;;;;10.23;8.73;;;21.60;91.80;;;;;;4998753;28;20443;-78
2021/09/10 08:38:12;;;;;;;14.38;9.60;;;21.60;91.80;;;;;;5015946;28;20048;-80
2021/09/10 08:40:37;;;;;;;16.77;9.77;;;21.70;91.70;;;;;;5014934;28;20470;-81
2021/09/10 08:43:03;;;;;;;15.05;9.35;;;21.70;91.60;;;;;;4998032;28;20030;-78
2021/09/10 08:45:30;;;;;;;13.15;8.98;;;21.70;91.50;;;;;;5014131;28;20076;-79
2021/09/10 08:47:56;;;;;;;16.75;9.57;;;21.70;91.40;;;;;;5014489;28;20367;-79
2021/09/10 08:50:23;;;;;;;14.07;9.68;;;21.80;91.30;;;;;;5015700;28;20537;-77
2021/09/10 08:52:50;;;;;;;13.18;9.45;;;21.80;91.30;;;;;;5015614;28;20481;-79
2021/09/10 08:55:16;;;;;;;13.52;9.27;;;21.90;91.20;;;;;;5015685;28;20021;-78
2021/09/10 08:57:50;;;;;;;12.20;7.78;;;21.90;91.10;;;;;;5016638;28;20351;-80
2021/09/10 09:00:18;;;;;;;12.15;9.07;;;22.00;91.10;;;;;;5017788;28;20076;-79
2021/09/10 09:03:16;;;;;;;13.30;8.40;;;22.00;91.00;;;;;;5014004;28;20038;-78
2021/09/10 09:05:42;;;;;;;11.25;7.90;;;22.10;90.80;;;;;;4994218;28;20047;-74
2021/09/10 09:08:18;;;;;;;12.32;9.25;;;22.20;90.60;;;;;;5003800;28;20042;-77
2021/09/10 09:11:05;;;;;;;11.13;8.32;;;22.30;90.60;;;;;;5014271;28;20120;-81
2021/09/10 09:13:43;;;;;;;12.32;8.65;;;22.30;90.50;;;;;;4995553;28;20102;-75
2021/09/10 09:16:19;;;;;;;11.93;8.65;;;22.40;90.40;;;;;;4995879;28;20026;-78
2021/09/10 09:18:55;;;;;;;11.85;7.95;;;22.50;90.30;;;;;;4995767;28;20026;-77
2021/09/10 09:21:31;;;;;;;14.45;7.35;;;22.60;90.20;;;;;;5009132;28;20025;-77
2021/09/10 09:24:18;;;;;;;10.32;8.25;;;22.70;90.10;;;;;;4994864;28;20040;-79
2021/09/10 09:26:46;;;;;;;12.95;7.80;;;22.80;89.70;;;;;;4994433;28;20361;-80
2021/09/10 09:29:17;;;;;;;9.73;7.13;;;22.90;89.40;;;;;;5013410;28;20057;-81
2021/09/10 09:31:55;;;;;;;10.60;7.03;;;23.00;89.30;;;;;;5014593;28;20026;-77
2021/09/10 09:34:41;;;;;;;9.80;6.93;;;23.10;88.50;;;;;;5014766;28;20062;-80
2021/09/10 09:37:07;;;;;;;11.40;6.93;;;23.20;88.00;;;;;;5014684;28;20021;-77
2021/09/10 09:39:53;;;;;;;9.48;6.07;;;23.20;87.80;;;;;;5013540;28;20026;-79
2021/09/10 09:42:27;;;;;;;7.72;5.47;;;23.40;87.80;;;;;;5014817;28;20022;-78
2021/09/10 09:45:09;;;;;;;10.10;5.78;;;23.60;88.20;;;;;;5013763;28;20025;-78
2021/09/10 09:47:36;;;;;;;8.77;5.70;;;23.80;86.80;;;;;;5014982;28;20354;-79
2021/09/10 09:50:14;;;;;;;13.20;5.80;;;24.00;86.20;;;;;;5013520;28;20041;-78
2021/09/10 09:52:40;;;;;;;9.35;5.20;;;24.20;85.50;;;;;;5014270;28;20036;-77
2021/09/10 09:55:09;;;;;;;10.05;5.45;;;24.30;84.70;;;;;;5012819;28;20382;-78
2021/09/10 09:57:35;;;;;;;7.50;4.47;;;24.50;84.30;;;;;;5013289;28;20037;-81
2021/09/10 10:00:06;;;;;;;8.68;4.05;;;24.70;83.20;;;;;;4997206;28;20030;-78
2021/09/10 10:02:34;;;;;;;6.55;3.55;;;24.90;83.20;;;;;;5012620;28;20030;-82
2021/09/10 10:05:00;;;;;;;7.90;4.07;;;25.10;81.10;;;;;;5012944;28;20196;-78
2021/09/10 10:07:56;;;;;;;6.78;3.83;;;25.20;80.80;;;;;;4996623;28;20029;-77
2021/09/10 10:10:29;;;;;;;6.78;4.07;;;25.30;79.70;;;;;;5011256;28;20148;-83
2021/09/10 10:12:57;;;;;;;7.15;3.80;;;25.50;79.40;;;;;;5013279;28;20018;-76
2021/09/10 10:15:28;;;;;;;7.00;3.47;;;25.60;78.80;;;;;;5014499;28;20056;-76
2021/09/10 10:17:56;;;;;;;5.82;3.50;;;25.70;78.70;;;;;;5013889;28;20026;-80
2021/09/10 10:21:06;;;;;;;9.27;5.47;;;25.80;78.40;;;;;;5012920;28;20030;-75
2021/09/10 10:23:44;;;;;;;8.75;4.63;;;26.00;77.00;;;;;;5012391;28;20394;-80
2021/09/10 10:26:20;;;;;;;9.30;5.18;;;26.30;76.80;;;;;;5018976;28;20054;-78
2021/09/10 10:28:51;;;;;;;7.25;4.82;;;26.40;76.50;;;;;;5012649;28;20080;-79
2021/09/10 10:31:18;;;;;;;8.43;4.55;;;26.40;75.70;;;;;;5013797;28;20029;-79
2021/09/10 10:33:48;;;;;;;8.30;4.60;;;26.40;75.20;;;;;;5013914;28;20017;-78
2021/09/10 10:36:37;;;;;;;8.88;5.22;;;26.30;74.70;;;;;;5013342;28;20101;-80
2021/09/10 10:39:09;;;;;;;8.50;4.80;;;26.20;73.90;;;;;;5005793;28;20105;-80
2021/09/10 10:41:53;;;;;;;9.40;4.03;;;26.10;73.30;;;;;;5012346;28;20034;-82
2021/09/10 10:44:34;;;;;;;8.60;4.50;;;25.90;73.20;;;;;;4992912;28;20387;-79
2021/09/10 10:47:10;;;;;;;8.95;4.97;;;25.80;73.50;;;;;;5012093;28;20049;-82
2021/09/10 10:49:40;;;;;;;9.35;5.35;;;25.70;74.00;;;;;;4989713;28;20033;-81
2021/09/10 10:52:27;;;;;;;7.70;4.47;;;25.70;74.30;;;;;;5008908;28;20435;-79
2021/09/10 10:55:18;;;;;;;9.38;3.60;;;25.90;74.70;;;;;;5022361;28;20084;-87
2021/09/10 10:57:48;;;;;;;7.97;3.40;;;26.20;74.40;;;;;;5004923;28;20085;-79
2021/09/10 11:00:29;;;;;;;6.93;2.65;;;26.50;74.00;;;;;;5012898;28;20018;-76
2021/09/10 11:03:13;;;;;;;8.73;2.88;;;26.90;73.10;;;;;;5013013;28;20107;-80
2021/09/10 11:05:50;;;;;;;5.28;2.67;;;27.10;72.40;;;;;;5012726;28;20049;-78
2021/09/10 11:08:35;;;;;;;7.40;2.75;;;27.20;72.00;;;;;;5013466;28;20026;-78
2021/09/10 11:11:01;;;;;;;6.82;3.05;;;27.30;71.00;;;;;;5013617;28;20121;-75
2021/09/10 11:13:28;;;;;;;5.93;3.08;;;27.20;70.60;;;;;;5013756;28;20084;-75
2021/09/10 11:15:53;;;;;;;6.25;2.80;;;27.20;70.40;;;;;;5013708;28;20113;-76
2021/09/10 11:18:19;;;;;;;7.18;3.42;;;27.20;70.10;;;;;;5013500;28;20109;-76
2021/09/10 11:20:48;;;;;;;5.97;3.67;;;27.00;69.80;;;;;;5013376;28;20028;-76
2021/09/10 11:23:28;;;;;;;6.07;3.55;;;26.90;70.00;;;;;;5007533;28;20034;-75
2021/09/10 11:25:55;;;;;;;9.23;3.60;;;26.80;69.90;;;;;;5012151;28;20088;-83
2021/09/10 11:28:28;;;;;;;6.93;3.55;;;26.80;69.90;;;;;;4994957;28;20382;-76
2021/09/10 11:30:54;;;;;;;9.55;3.15;;;26.70;69.80;;;;;;5012186;28;20117;-76
2021/09/10 11:33:22;;;;;;;5.53;2.85;;;26.60;69.90;;;;;;5008181;28;20037;-77
2021/09/10 11:35:50;;;;;;;8.10;3.38;;;26.50;69.90;;;;;;5013614;28;20034;-77
2021/09/10 11:38:19;;;;;;;7.65;4.22;;;26.40;69.90;;;;;;5011932;28;20018;-80
2021/09/10 11:40:50;;;;;;;7.53;4.07;;;26.40;70.70;;;;;;5013203;28;20033;-79
2021/09/10 11:43:26;;;;;;;7.70;4.00;;;26.20;71.90;;;;;;5011737;28;20030;-79
2021/09/10 11:46:05;;;;;;;6.30;4.15;;;26.10;72.40;;;;;;5012087;28;20426;-78
2021/09/10 11:48:38;;;;;;;8.75;4.80;;;25.90;73.20;;;;;;5015027;28;20022;-78
2021/09/10 11:51:08;;;;;;;7.95;3.65;;;25.80;72.90;;;;;;5016650;28;20030;-76
2021/09/10 11:53:47;;;;;;;8.57;4.25;;;25.70;73.80;;;;;;5012176;28;20501;-80
2021/09/10 11:56:16;;;;;;;7.53;3.45;;;25.60;73.40;;;;;;5014359;28;20366;-80
2021/09/10 11:58:47;;;;;;;6.88;3.97;;;25.60;73.60;;;;;;5017079;28;20095;-81
2021/09/10 12:01:25;;;;;;;6.70;3.92;;;25.60;73.60;;;;;;5031606;28;20026;-81
2021/09/10 12:04:02;;;;;;;7.05;3.70;;;25.50;73.60;;;;;;5008817;28;20033;-77
2021/09/10 12:06:49;;;;;;;8.30;4.30;;;25.40;73.80;;;;;;5016320;28;20034;-80
2021/09/10 12:09:19;;;;;;;6.95;4.22;;;25.40;73.80;;;;;;5015918;28;20026;-79
2021/09/10 12:12:12;;;;;;;7.50;3.80;;;25.30;73.70;;;;;;5015054;28;20363;-83
2021/09/10 12:14:51;;;;;;;7.45;4.00;;;25.30;73.90;;;;;;5014944;28;20514;-79
2021/09/10 12:17:25;;;;;;;10.88;4.53;;;25.30;73.90;;;;;;5015642;28;20433;-80
2021/09/10 12:20:14;;;;;;;8.25;4.22;;;25.20;74.00;;;;;;5016172;28;20037;-81
2021/09/10 12:22:49;;;;;;;9.35;4.75;;;25.10;74.00;;;;;;5015053;28;20029;-81
2021/09/10 12:25:39;;;;;;;8.60;4.85;;;25.10;74.20;;;;;;5014818;28;20029;-75
2021/09/10 12:28:09;;;;;;;9.30;5.18;;;25.00;74.20;;;;;;5016094;28;20042;-77
2021/09/10 12:30:38;;;;;;;7.28;4.38;;;25.00;74.30;;;;;;5019117;28;20081;-78
2021/09/10 12:33:06;;;;;;;7.43;4.13;;;24.90;74.40;;;;;;5030972;28;20022;-80
2021/09/10 12:35:33;;;;;;;8.35;4.82;;;24.80;74.60;;;;;;5015735;28;20037;-79
2021/09/10 12:38:16;;;;;;;11.57;5.40;;;24.60;75.10;;;;;;5015809;28;20413;-79
2021/09/10 12:40:47;;;;;;;11.23;6.25;;;24.60;76.40;;;;;;5015722;28;20070;-80
2021/09/10 12:43:15;;;;;;;17.10;8.13;;;24.40;78.10;;;;;;5014179;28;20033;-82
2021/09/10 12:45:41;;;;;;;15.57;8.85;;;24.20;79.80;;;;;;5014168;28;20030;-79
2021/09/10 12:48:08;;;;;;;13.52;7.72;;;23.90;82.20;;;;;;5014309;28;20022;-79
2021/09/10 12:50:35;;;;;;;19.20;10.05;;;23.60;82.80;;;;;;5014242;28;20143;-80
2021/09/10 12:53:01;;;;;;;16.02;9.73;;;23.30;83.90;;;;;;5014290;28;20370;-79
2021/09/10 12:55:27;;;;;;;21.05;9.88;;;23.00;85.10;;;;;;5015549;28;20045;-78
2021/09/10 12:57:53;;;;;;;15.60;10.20;;;22.90;86.00;;;;;;5030391;28;20037;-78
2021/09/10 13:00:19;;;;;;;14.73;8.93;;;22.80;87.00;;;;;;5013199;28;20034;-80
2021/09/10 13:02:45;;;;;;;17.80;10.40;;;22.60;88.10;;;;;;5014144;28;20038;-80
2021/09/10 13:05:11;;;;;;;16.98;10.60;;;22.40;88.70;;;;;;5014204;28;20076;-79
2021/09/10 13:07:37;;;;;;;17.73;9.98;;;22.30;90.30;;;;;;5030622;28;20022;-80
2021/09/10 13:10:04;;;;;;;17.35;9.73;;;22.00;90.90;;;;;;5014051;28;20483;-80
2021/09/10 13:12:29;;;;;;;13.32;6.68;;;21.70;91.20;;;;;;5014663;28;20064;-81
2021/09/10 13:14:55;;;;;;;13.18;7.80;;;21.50;91.90;;;;;;5014110;28;20018;-81
2021/09/10 13:17:23;;;;;;;11.32;6.97;;;21.30;92.20;;;;;;4998438;28;20014;-81
2021/09/10 13:19:49;;;;;;;10.10;7.03;;;21.20;92.50;;;;;;5014916;28;20029;-80
2021/09/10 13:22:15;;;;;;;10.95;6.05;;;21.10;93.20;;;;;;5013950;28;20386;-80
2021/09/10 13:24:43;;;;;;;8.45;5.57;;;21.00;93.60;;;;;;5013850;28;20045;-80
2021/09/10 13:27:11;;;;;;;11.02;5.50;;;20.90;93.40;;;;;;5014961;28;20056;-78
2021/09/10 13:29:36;;;;;;;8.57;4.93;;;20.80;93.80;;;;;;5015071;28;20600;-77